sensor_id;sensor_type;location;lat;lon;timestamp;pressure;altitude;pressure_sealevel;temperature;humidity
41234;BME280;26968;42.686;23.352;2023-08-08T00:01:43;95016.78;;;15.80;79.20
41234;BME280;26968;42.686;23.352;2023-08-08T00:04:12;95095.25;;;16.15;77.96
41234;BME280;26968;42.686;23.352;2023-08-08T00:06:37;95110.13;;;16.38;79.04
41234;BME280;26968;42.686;23.352;2023-08-08T00:09:04;95074.53;;;16.29;80.01
41234;BME280;26968;42.686;23.352;2023-08-08T00:11:30;95103.34;;;16.41;78.67
41234;BME280;26968;42.686;23.352;2023-08-08T00:13:56;95126.16;;;16.30;78.41
41234;BME280;26968;42.686;23.352;2023-08-08T00:16:22;95124.38;;;16.16;76.93
41234;BME280;26968;42.686;23.352;2023-08-08T00:18:48;95007.97;;;15.49;78.12
41234;BME280;26968;42.686;23.352;2023-08-08T00:21:16;95122.13;;;16.01;78.72
41234;BME280;26968;42.686;23.352;2023-08-08T00:23:41;95125.09;;;16.00;78.27
41234;BME280;26968;42.686;23.352;2023-08-08T00:26:07;95101.97;;;16.04;78.06
41234;BME280;26968;42.686;23.352;2023-08-08T00:28:32;95042.00;;;15.57;78.77
41234;BME280;26968;42.686;23.352;2023-08-08T00:30:58;95125.75;;;16.05;79.30
41234;BME280;26968;42.686;23.352;2023-08-08T00:33:23;95120.00;;;15.90;78.11
41234;BME280;26968;42.686;23.352;2023-08-08T00:35:48;95091.19;;;15.78;77.93
41234;BME280;26968;42.686;23.352;2023-08-08T00:38:14;95137.50;;;15.96;77.85
41234;BME280;26968;42.686;23.352;2023-08-08T00:40:41;95125.16;;;15.77;79.03
41234;BME280;26968;42.686;23.352;2023-08-08T00:43:07;95118.75;;;15.56;76.87
41234;BME280;26968;42.686;23.352;2023-08-08T00:45:32;95122.25;;;15.65;77.64
41234;BME280;26968;42.686;23.352;2023-08-08T00:47:58;95080.84;;;15.32;78.01
41234;BME280;26968;42.686;23.352;2023-08-08T00:50:23;95127.13;;;15.63;78.85
41234;BME280;26968;42.686;23.352;2023-08-08T00:52:51;95149.13;;;15.60;78.20
41234;BME280;26968;42.686;23.352;2023-08-08T00:55:18;95141.59;;;15.62;78.08
41234;BME280;26968;42.686;23.352;2023-08-08T00:57:44;95157.53;;;15.76;78.37
41234;BME280;26968;42.686;23.352;2023-08-08T01:00:10;95125.91;;;15.69;77.61
41234;BME280;26968;42.686;23.352;2023-08-08T01:02:36;95098.63;;;15.36;77.41
41234;BME280;26968;42.686;23.352;2023-08-08T01:05:02;95149.66;;;15.71;78.64
41234;BME280;26968;42.686;23.352;2023-08-08T01:07:52;95109.66;;;15.43;76.88
41234;BME280;26968;42.686;23.352;2023-08-08T01:10:26;95157.06;;;15.74;77.22
41234;BME280;26968;42.686;23.352;2023-08-08T01:12:55;95080.06;;;15.09;76.60
41234;BME280;26968;42.686;23.352;2023-08-08T01:15:25;95175.25;;;15.63;76.66
41234;BME280;26968;42.686;23.352;2023-08-08T01:17:51;95164.56;;;15.50;77.00
41234;BME280;26968;42.686;23.352;2023-08-08T01:20:18;95148.44;;;15.32;76.92
41234;BME280;26968;42.686;23.352;2023-08-08T01:25:48;95082.69;;;15.00;79.01
41234;BME280;26968;42.686;23.352;2023-08-08T01:28:14;95173.78;;;15.57;76.08
41234;BME280;26968;42.686;23.352;2023-08-08T01:30:39;95177.59;;;15.65;77.18
41234;BME280;26968;42.686;23.352;2023-08-08T01:33:05;95071.78;;;14.97;75.98
41234;BME280;26968;42.686;23.352;2023-08-08T01:35:36;95138.91;;;15.18;76.82
41234;BME280;26968;42.686;23.352;2023-08-08T01:38:10;95088.28;;;14.77;77.63
41234;BME280;26968;42.686;23.352;2023-08-08T01:40:38;95174.28;;;15.23;78.22
41234;BME280;26968;42.686;23.352;2023-08-08T01:43:05;95164.59;;;14.91;77.26
41234;BME280;26968;42.686;23.352;2023-08-08T01:45:31;95177.72;;;14.88;78.26
41234;BME280;26968;42.686;23.352;2023-08-08T01:47:56;95170.84;;;14.73;79.10
41234;BME280;26968;42.686;23.352;2023-08-08T01:50:22;95183.41;;;14.86;79.38
41234;BME280;26968;42.686;23.352;2023-08-08T01:52:47;95185.38;;;14.94;80.10
41234;BME280;26968;42.686;23.352;2023-08-08T01:55:13;95161.66;;;14.79;79.73
41234;BME280;26968;42.686;23.352;2023-08-08T01:57:38;95177.25;;;14.86;79.56
41234;BME280;26968;42.686;23.352;2023-08-08T02:00:05;95145.44;;;14.76;79.55
41234;BME280;26968;42.686;23.352;2023-08-08T02:02:31;95202.88;;;15.23;80.04
41234;BME280;26968;42.686;23.352;2023-08-08T02:04:57;95156.00;;;14.81;78.21
41234;BME280;26968;42.686;23.352;2023-08-08T02:07:22;95211.94;;;14.99;78.70
41234;BME280;26968;42.686;23.352;2023-08-08T02:09:48;95225.56;;;15.12;78.93
41234;BME280;26968;42.686;23.352;2023-08-08T02:12:16;95224.09;;;15.05;79.33
41234;BME280;26968;42.686;23.352;2023-08-08T02:14:42;95170.00;;;14.64;79.85
41234;BME280;26968;42.686;23.352;2023-08-08T02:17:07;95168.69;;;14.75;80.22
41234;BME280;26968;42.686;23.352;2023-08-08T02:19:32;95159.16;;;14.83;80.25
41234;BME280;26968;42.686;23.352;2023-08-08T02:21:58;95209.41;;;14.94;79.42
41234;BME280;26968;42.686;23.352;2023-08-08T02:24:23;95214.25;;;14.92;79.94
41234;BME280;26968;42.686;23.352;2023-08-08T02:26:49;95128.47;;;14.30;79.83
41234;BME280;26968;42.686;23.352;2023-08-08T02:29:14;95198.25;;;14.79;79.94
41234;BME280;26968;42.686;23.352;2023-08-08T02:31:39;95257.13;;;14.96;81.03
41234;BME280;26968;42.686;23.352;2023-08-08T02:34:05;95233.63;;;14.84;80.42
41234;BME280;26968;42.686;23.352;2023-08-08T02:36:30;95241.50;;;15.03;81.12
41234;BME280;26968;42.686;23.352;2023-08-08T02:38:56;95230.44;;;14.96;80.71
41234;BME280;26968;42.686;23.352;2023-08-08T02:41:21;95113.47;;;14.21;79.82
41234;BME280;26968;42.686;23.352;2023-08-08T02:43:47;95155.66;;;14.46;79.34
41234;BME280;26968;42.686;23.352;2023-08-08T02:46:12;95194.00;;;14.50;79.51
41234;BME280;26968;42.686;23.352;2023-08-08T02:48:38;95265.16;;;14.96;79.98
41234;BME280;26968;42.686;23.352;2023-08-08T02:51:03;95256.66;;;14.66;81.33
41234;BME280;26968;42.686;23.352;2023-08-08T02:53:29;95224.53;;;14.58;81.30
41234;BME280;26968;42.686;23.352;2023-08-08T02:55:54;95220.41;;;14.79;81.14
41234;BME280;26968;42.686;23.352;2023-08-08T02:58:20;95256.81;;;15.11;79.98
41234;BME280;26968;42.686;23.352;2023-08-08T03:00:45;95294.22;;;15.11;79.12
41234;BME280;26968;42.686;23.352;2023-08-08T03:03:11;95256.28;;;14.87;79.55
41234;BME280;26968;42.686;23.352;2023-08-08T03:05:36;95271.34;;;15.19;79.36
41234;BME280;26968;42.686;23.352;2023-08-08T03:08:01;95220.19;;;14.76;80.57
41234;BME280;26968;42.686;23.352;2023-08-08T03:10:27;95269.28;;;15.16;80.25
41234;BME280;26968;42.686;23.352;2023-08-08T03:12:52;95247.13;;;15.15;79.63
41234;BME280;26968;42.686;23.352;2023-08-08T03:15:18;95252.97;;;15.17;79.81
41234;BME280;26968;42.686;23.352;2023-08-08T03:17:43;95225.59;;;14.98;80.14
41234;BME280;26968;42.686;23.352;2023-08-08T03:20:09;95293.31;;;15.29;78.76
41234;BME280;26968;42.686;23.352;2023-08-08T03:22:36;95225.72;;;14.79;79.74
41234;BME280;26968;42.686;23.352;2023-08-08T03:25:02;95153.47;;;14.35;78.96
41234;BME280;26968;42.686;23.352;2023-08-08T03:27:29;95219.28;;;14.80;79.37
41234;BME280;26968;42.686;23.352;2023-08-08T03:29:55;95286.50;;;15.23;78.31
41234;BME280;26968;42.686;23.352;2023-08-08T03:32:20;95271.56;;;15.22;78.97
41234;BME280;26968;42.686;23.352;2023-08-08T03:34:46;95206.25;;;14.79;78.35
41234;BME280;26968;42.686;23.352;2023-08-08T03:37:11;95246.31;;;14.79;78.22
41234;BME280;26968;42.686;23.352;2023-08-08T03:39:37;95251.22;;;14.99;79.17
41234;BME280;26968;42.686;23.352;2023-08-08T03:42:02;95273.47;;;14.94;79.07
41234;BME280;26968;42.686;23.352;2023-08-08T03:44:28;95283.63;;;15.20;78.89
41234;BME280;26968;42.686;23.352;2023-08-08T03:46:53;95299.16;;;15.04;78.39
41234;BME280;26968;42.686;23.352;2023-08-08T03:49:18;95237.19;;;14.52;79.89
41234;BME280;26968;42.686;23.352;2023-08-08T03:51:44;95302.84;;;15.08;79.43
41234;BME280;26968;42.686;23.352;2023-08-08T03:54:09;95203.50;;;14.56;78.40
41234;BME280;26968;42.686;23.352;2023-08-08T03:56:35;95275.47;;;15.02;78.08
41234;BME280;26968;42.686;23.352;2023-08-08T03:59:00;95196.19;;;14.48;77.94
41234;BME280;26968;42.686;23.352;2023-08-08T04:01:26;95241.03;;;14.74;78.00
41234;BME280;26968;42.686;23.352;2023-08-08T04:03:51;95294.22;;;15.11;77.76
41234;BME280;26968;42.686;23.352;2023-08-08T04:06:16;95234.13;;;14.73;78.02
41234;BME280;26968;42.686;23.352;2023-08-08T04:08:42;95274.97;;;14.87;76.99
41234;BME280;26968;42.686;23.352;2023-08-08T04:11:07;95281.19;;;14.96;78.17
41234;BME280;26968;42.686;23.352;2023-08-08T04:13:33;95287.63;;;14.95;77.41
41234;BME280;26968;42.686;23.352;2023-08-08T04:15:58;95276.34;;;14.98;77.79
41234;BME280;26968;42.686;23.352;2023-08-08T04:18:24;95220.78;;;14.45;77.98
41234;BME280;26968;42.686;23.352;2023-08-08T04:20:49;95264.28;;;14.87;77.58
41234;BME280;26968;42.686;23.352;2023-08-08T04:23:15;95323.28;;;15.26;77.51
41234;BME280;26968;42.686;23.352;2023-08-08T04:25:40;95272.59;;;14.72;77.11
41234;BME280;26968;42.686;23.352;2023-08-08T04:28:05;95234.28;;;14.35;77.07
41234;BME280;26968;42.686;23.352;2023-08-08T04:30:31;95242.78;;;14.37;77.48
41234;BME280;26968;42.686;23.352;2023-08-08T04:32:56;95353.78;;;15.12;77.49
41234;BME280;26968;42.686;23.352;2023-08-08T04:35:22;95344.78;;;15.21;76.96
41234;BME280;26968;42.686;23.352;2023-08-08T04:37:47;95325.97;;;15.13;77.29
41234;BME280;26968;42.686;23.352;2023-08-08T04:40:13;95271.59;;;14.81;76.47
41234;BME280;26968;42.686;23.352;2023-08-08T04:42:38;95267.44;;;14.75;75.86
41234;BME280;26968;42.686;23.352;2023-08-08T04:45:04;95331.44;;;15.07;76.58
41234;BME280;26968;42.686;23.352;2023-08-08T04:47:30;95299.09;;;15.09;75.95
41234;BME280;26968;42.686;23.352;2023-08-08T04:49:55;95257.66;;;14.84;75.71
41234;BME280;26968;42.686;23.352;2023-08-08T04:52:21;95249.34;;;14.86;75.24
41234;BME280;26968;42.686;23.352;2023-08-08T04:54:46;95291.97;;;14.91;75.67
41234;BME280;26968;42.686;23.352;2023-08-08T04:57:12;95295.25;;;15.01;75.92
41234;BME280;26968;42.686;23.352;2023-08-08T04:59:37;95336.16;;;15.38;75.18
41234;BME280;26968;42.686;23.352;2023-08-08T05:02:03;95351.47;;;15.60;74.27
41234;BME280;26968;42.686;23.352;2023-08-08T05:04:30;95331.22;;;15.31;74.10
41234;BME280;26968;42.686;23.352;2023-08-08T05:06:56;95321.31;;;15.32;74.82
41234;BME280;26968;42.686;23.352;2023-08-08T05:09:23;95353.56;;;15.35;73.96
41234;BME280;26968;42.686;23.352;2023-08-08T05:11:52;95373.84;;;15.36;74.42
41234;BME280;26968;42.686;23.352;2023-08-08T05:14:17;95362.59;;;14.98;74.53
41234;BME280;26968;42.686;23.352;2023-08-08T05:16:43;95415.72;;;15.14;75.13
41234;BME280;26968;42.686;23.352;2023-08-08T05:19:08;95359.00;;;14.89;75.17
41234;BME280;26968;42.686;23.352;2023-08-08T05:21:34;95402.28;;;15.32;75.29
41234;BME280;26968;42.686;23.352;2023-08-08T05:24:00;95415.13;;;15.30;75.07
41234;BME280;26968;42.686;23.352;2023-08-08T05:26:25;95377.94;;;15.06;75.06
41234;BME280;26968;42.686;23.352;2023-08-08T05:28:51;95350.94;;;14.94;74.52
41234;BME280;26968;42.686;23.352;2023-08-08T05:31:16;95367.13;;;14.98;74.39
41234;BME280;26968;42.686;23.352;2023-08-08T05:33:42;95337.94;;;14.74;75.10
41234;BME280;26968;42.686;23.352;2023-08-08T05:36:07;95411.66;;;15.30;74.84
41234;BME280;26968;42.686;23.352;2023-08-08T05:38:32;95304.94;;;14.70;74.29
41234;BME280;26968;42.686;23.352;2023-08-08T05:40:58;95390.28;;;15.30;74.18
41234;BME280;26968;42.686;23.352;2023-08-08T05:43:23;95422.69;;;15.56;72.77
41234;BME280;26968;42.686;23.352;2023-08-08T05:45:49;95381.69;;;15.33;72.67
41234;BME280;26968;42.686;23.352;2023-08-08T05:48:14;95437.91;;;15.69;72.03
41234;BME280;26968;42.686;23.352;2023-08-08T05:50:40;95438.59;;;15.74;71.65
41234;BME280;26968;42.686;23.352;2023-08-08T05:53:06;95430.47;;;15.66;71.90
41234;BME280;26968;42.686;23.352;2023-08-08T05:55:32;95446.81;;;15.64;70.23
41234;BME280;26968;42.686;23.352;2023-08-08T05:57:57;95393.63;;;15.49;70.42
41234;BME280;26968;42.686;23.352;2023-08-08T06:00:23;95422.44;;;15.79;70.60
41234;BME280;26968;42.686;23.352;2023-08-08T06:02:48;95446.13;;;15.86;69.25
41234;BME280;26968;42.686;23.352;2023-08-08T06:05:16;95424.88;;;15.54;70.25
41234;BME280;26968;42.686;23.352;2023-08-08T06:07:41;95455.75;;;15.60;69.79
41234;BME280;26968;42.686;23.352;2023-08-08T06:10:07;95443.97;;;15.61;71.21
41234;BME280;26968;42.686;23.352;2023-08-08T06:12:34;95428.19;;;15.45;70.90
41234;BME280;26968;42.686;23.352;2023-08-08T06:15:00;95458.00;;;15.66;71.77
41234;BME280;26968;42.686;23.352;2023-08-08T06:17:25;95441.69;;;15.68;71.13
41234;BME280;26968;42.686;23.352;2023-08-08T06:19:51;95413.66;;;15.38;70.43
41234;BME280;26968;42.686;23.352;2023-08-08T06:22:17;95439.97;;;15.72;70.27
41234;BME280;26968;42.686;23.352;2023-08-08T06:24:42;95417.53;;;15.59;69.14
41234;BME280;26968;42.686;23.352;2023-08-08T06:27:07;95445.50;;;15.89;69.98
41234;BME280;26968;42.686;23.352;2023-08-08T06:29:33;95394.84;;;15.57;68.39
41234;BME280;26968;42.686;23.352;2023-08-08T06:31:58;95370.41;;;15.36;68.05
41234;BME280;26968;42.686;23.352;2023-08-08T06:34:24;95424.63;;;15.77;68.17
41234;BME280;26968;42.686;23.352;2023-08-08T06:36:49;95421.97;;;15.77;67.70
41234;BME280;26968;42.686;23.352;2023-08-08T06:39:15;95454.66;;;16.10;67.35
41234;BME280;26968;42.686;23.352;2023-08-08T06:41:40;95441.66;;;16.17;68.10
41234;BME280;26968;42.686;23.352;2023-08-08T06:44:07;95394.59;;;15.94;67.75
41234;BME280;26968;42.686;23.352;2023-08-08T06:46:32;95353.81;;;15.75;67.29
41234;BME280;26968;42.686;23.352;2023-08-08T06:48:59;95428.25;;;16.31;67.79
41234;BME280;26968;42.686;23.352;2023-08-08T06:51:26;95433.63;;;16.31;67.88
41234;BME280;26968;42.686;23.352;2023-08-08T06:53:52;95414.00;;;16.22;66.38
41234;BME280;26968;42.686;23.352;2023-08-08T06:56:18;95458.16;;;16.47;65.44
41234;BME280;26968;42.686;23.352;2023-08-08T06:58:43;95449.00;;;16.48;64.74
41234;BME280;26968;42.686;23.352;2023-08-08T07:01:09;95449.50;;;16.50;62.87
41234;BME280;26968;42.686;23.352;2023-08-08T07:03:35;95426.25;;;16.37;62.33
41234;BME280;26968;42.686;23.352;2023-08-08T07:06:02;95325.84;;;15.59;61.29
41234;BME280;26968;42.686;23.352;2023-08-08T07:08:27;95452.41;;;16.40;60.57
41234;BME280;26968;42.686;23.352;2023-08-08T07:10:54;95338.63;;;15.48;60.49
41234;BME280;26968;42.686;23.352;2023-08-08T07:13:20;95385.31;;;15.78;59.79
41234;BME280;26968;42.686;23.352;2023-08-08T07:15:45;95349.16;;;15.80;60.23
41234;BME280;26968;42.686;23.352;2023-08-08T07:18:11;95415.66;;;16.32;60.27
41234;BME280;26968;42.686;23.352;2023-08-08T07:20:36;95426.97;;;16.29;59.10
41234;BME280;26968;42.686;23.352;2023-08-08T07:23:01;95468.44;;;16.53;59.33
41234;BME280;26968;42.686;23.352;2023-08-08T07:25:27;95370.56;;;16.03;59.81
41234;BME280;26968;42.686;23.352;2023-08-08T07:27:52;95439.41;;;16.47;59.61
41234;BME280;26968;42.686;23.352;2023-08-08T07:30:18;95452.13;;;16.64;59.14
41234;BME280;26968;42.686;23.352;2023-08-08T07:32:43;95431.19;;;16.43;58.63
41234;BME280;26968;42.686;23.352;2023-08-08T07:35:10;95409.16;;;16.24;58.54
41234;BME280;26968;42.686;23.352;2023-08-08T07:37:36;95462.44;;;16.56;58.60
41234;BME280;26968;42.686;23.352;2023-08-08T07:40:01;95361.00;;;16.02;58.28
41234;BME280;26968;42.686;23.352;2023-08-08T07:42:29;95412.44;;;16.21;57.70
41234;BME280;26968;42.686;23.352;2023-08-08T07:44:54;95431.09;;;16.35;56.88
41234;BME280;26968;42.686;23.352;2023-08-08T07:47:20;95457.38;;;16.69;57.36
41234;BME280;26968;42.686;23.352;2023-08-08T07:49:45;95477.03;;;16.86;55.64
41234;BME280;26968;42.686;23.352;2023-08-08T07:52:11;95336.59;;;16.03;56.31
41234;BME280;26968;42.686;23.352;2023-08-08T07:54:36;95396.94;;;16.32;56.65
41234;BME280;26968;42.686;23.352;2023-08-08T07:57:02;95404.91;;;16.68;55.43
41234;BME280;26968;42.686;23.352;2023-08-08T07:59:27;95428.41;;;16.93;55.06
41234;BME280;26968;42.686;23.352;2023-08-08T08:01:53;95420.34;;;16.62;55.24
41234;BME280;26968;42.686;23.352;2023-08-08T08:04:18;95420.09;;;16.58;55.62
41234;BME280;26968;42.686;23.352;2023-08-08T08:06:43;95458.66;;;16.93;55.34
41234;BME280;26968;42.686;23.352;2023-08-08T08:09:09;95435.09;;;17.13;54.57
41234;BME280;26968;42.686;23.352;2023-08-08T08:11:34;95426.41;;;17.07;54.25
41234;BME280;26968;42.686;23.352;2023-08-08T08:14:00;95476.63;;;17.24;55.36
41234;BME280;26968;42.686;23.352;2023-08-08T08:16:25;95431.72;;;16.98;54.23
41234;BME280;26968;42.686;23.352;2023-08-08T08:18:51;95436.88;;;17.26;54.70
41234;BME280;26968;42.686;23.352;2023-08-08T08:21:16;95440.72;;;17.03;54.40
41234;BME280;26968;42.686;23.352;2023-08-08T08:23:43;95337.84;;;16.73;54.91
41234;BME280;26968;42.686;23.352;2023-08-08T08:26:09;95438.84;;;17.43;53.85
41234;BME280;26968;42.686;23.352;2023-08-08T08:28:34;95403.41;;;17.06;53.61
41234;BME280;26968;42.686;23.352;2023-08-08T08:31:04;95414.31;;;17.18;54.27
41234;BME280;26968;42.686;23.352;2023-08-08T08:33:30;95471.06;;;17.51;53.56
41234;BME280;26968;42.686;23.352;2023-08-08T08:35:55;95395.84;;;17.17;53.83
41234;BME280;26968;42.686;23.352;2023-08-08T08:38:21;95446.06;;;17.73;53.66
41234;BME280;26968;42.686;23.352;2023-08-08T08:40:47;95464.56;;;17.74;53.37
41234;BME280;26968;42.686;23.352;2023-08-08T08:43:15;95466.31;;;17.88;53.70
41234;BME280;26968;42.686;23.352;2023-08-08T08:45:42;95414.97;;;17.63;53.84
41234;BME280;26968;42.686;23.352;2023-08-08T08:48:09;95458.72;;;17.81;53.64
41234;BME280;26968;42.686;23.352;2023-08-08T08:50:38;95402.09;;;17.43;52.86
41234;BME280;26968;42.686;23.352;2023-08-08T08:53:05;95414.13;;;17.46;52.96
41234;BME280;26968;42.686;23.352;2023-08-08T08:55:31;95405.63;;;17.52;53.40
41234;BME280;26968;42.686;23.352;2023-08-08T08:57:57;95378.16;;;17.55;53.66
41234;BME280;26968;42.686;23.352;2023-08-08T09:00:23;95422.59;;;17.87;52.44
41234;BME280;26968;42.686;23.352;2023-08-08T09:02:51;95403.50;;;17.80;52.56
41234;BME280;26968;42.686;23.352;2023-08-08T09:05:18;95435.22;;;17.87;52.29
41234;BME280;26968;42.686;23.352;2023-08-08T09:07:46;95453.09;;;18.00;52.49
41234;BME280;26968;42.686;23.352;2023-08-08T09:10:14;95420.72;;;18.05;52.29
41234;BME280;26968;42.686;23.352;2023-08-08T09:12:40;95460.38;;;18.34;51.22
41234;BME280;26968;42.686;23.352;2023-08-08T09:15:06;95402.88;;;18.00;50.54
41234;BME280;26968;42.686;23.352;2023-08-08T09:17:31;95398.44;;;17.87;51.88
41234;BME280;26968;42.686;23.352;2023-08-08T09:19:57;95434.00;;;18.27;52.23
41234;BME280;26968;42.686;23.352;2023-08-08T09:22:25;95460.69;;;18.24;51.46
41234;BME280;26968;42.686;23.352;2023-08-08T09:24:52;95411.25;;;17.99;52.65
41234;BME280;26968;42.686;23.352;2023-08-08T09:27:18;95447.91;;;18.29;52.97
41234;BME280;26968;42.686;23.352;2023-08-08T09:29:43;95343.28;;;17.55;52.39
41234;BME280;26968;42.686;23.352;2023-08-08T09:32:09;95419.94;;;18.13;52.36
41234;BME280;26968;42.686;23.352;2023-08-08T09:34:35;95464.81;;;18.21;51.55
41234;BME280;26968;42.686;23.352;2023-08-08T09:37:00;95451.19;;;18.00;50.81
41234;BME280;26968;42.686;23.352;2023-08-08T09:39:28;95344.44;;;17.54;50.69
41234;BME280;26968;42.686;23.352;2023-08-08T09:41:55;95365.78;;;17.85;51.06
41234;BME280;26968;42.686;23.352;2023-08-08T09:44:23;95461.16;;;18.34;50.80
41234;BME280;26968;42.686;23.352;2023-08-08T09:46:50;95364.19;;;17.93;50.43
41234;BME280;26968;42.686;23.352;2023-08-08T09:49:16;95375.59;;;18.07;50.78
41234;BME280;26968;42.686;23.352;2023-08-08T09:51:42;95416.50;;;18.38;49.69
41234;BME280;26968;42.686;23.352;2023-08-08T09:54:08;95383.00;;;18.10;49.83
41234;BME280;26968;42.686;23.352;2023-08-08T09:56:35;95383.44;;;18.46;49.06
41234;BME280;26968;42.686;23.352;2023-08-08T09:59:02;95476.88;;;19.31;48.35
41234;BME280;26968;42.686;23.352;2023-08-08T10:01:31;95402.19;;;19.45;47.21
41234;BME280;26968;42.686;23.352;2023-08-08T10:03:57;95453.38;;;20.16;45.74
41234;BME280;26968;42.686;23.352;2023-08-08T10:06:23;95357.91;;;19.92;45.37
41234;BME280;26968;42.686;23.352;2023-08-08T10:08:49;95415.16;;;20.22;45.38
41234;BME280;26968;42.686;23.352;2023-08-08T10:11:15;95422.75;;;20.29;45.86
41234;BME280;26968;42.686;23.352;2023-08-08T10:13:49;95461.88;;;20.68;45.78
41234;BME280;26968;42.686;23.352;2023-08-08T10:16:16;95441.34;;;20.42;46.10
41234;BME280;26968;42.686;23.352;2023-08-08T10:18:42;95446.31;;;20.53;46.06
41234;BME280;26968;42.686;23.352;2023-08-08T10:21:08;95451.44;;;20.99;45.21
41234;BME280;26968;42.686;23.352;2023-08-08T10:23:36;95396.72;;;21.32;44.15
41234;BME280;26968;42.686;23.352;2023-08-08T10:26:16;95441.72;;;21.88;42.82
41234;BME280;26968;42.686;23.352;2023-08-08T10:28:52;95461.59;;;21.14;43.34
41234;BME280;26968;42.686;23.352;2023-08-08T10:31:20;95449.47;;;21.53;43.25
41234;BME280;26968;42.686;23.352;2023-08-08T10:33:46;95447.66;;;21.94;42.01
41234;BME280;26968;42.686;23.352;2023-08-08T10:36:12;95456.72;;;21.29;43.16
41234;BME280;26968;42.686;23.352;2023-08-08T10:38:43;95441.94;;;21.83;42.37
41234;BME280;26968;42.686;23.352;2023-08-08T10:41:10;95425.16;;;21.90;42.04
41234;BME280;26968;42.686;23.352;2023-08-08T10:43:37;95418.63;;;22.27;41.59
41234;BME280;26968;42.686;23.352;2023-08-08T10:46:04;95413.78;;;22.21;41.73
41234;BME280;26968;42.686;23.352;2023-08-08T10:48:30;95410.81;;;22.78;40.72
41234;BME280;26968;42.686;23.352;2023-08-08T10:51:00;95423.41;;;22.74;40.29
41234;BME280;26968;42.686;23.352;2023-08-08T10:53:27;95423.78;;;22.20;41.34
41234;BME280;26968;42.686;23.352;2023-08-08T10:56:00;95416.31;;;22.42;40.51
41234;BME280;26968;42.686;23.352;2023-08-08T10:58:41;95378.44;;;22.54;40.05
41234;BME280;26968;42.686;23.352;2023-08-08T11:01:07;95375.25;;;23.07;38.79
41234;BME280;26968;42.686;23.352;2023-08-08T11:03:39;95406.63;;;23.71;38.53
41234;BME280;26968;42.686;23.352;2023-08-08T11:06:08;95355.81;;;23.18;38.30
41234;BME280;26968;42.686;23.352;2023-08-08T11:08:35;95323.19;;;23.11;38.20
41234;BME280;26968;42.686;23.352;2023-08-08T11:11:03;95373.75;;;23.73;37.44
41234;BME280;26968;42.686;23.352;2023-08-08T11:13:29;95411.22;;;24.37;36.95
41234;BME280;26968;42.686;23.352;2023-08-08T11:15:54;95419.69;;;24.01;36.77
41234;BME280;26968;42.686;23.352;2023-08-08T11:18:21;95350.41;;;23.49;37.48
41234;BME280;26968;42.686;23.352;2023-08-08T11:20:47;95391.66;;;24.28;36.88
41234;BME280;26968;42.686;23.352;2023-08-08T11:23:13;95341.72;;;24.10;36.76
41234;BME280;26968;42.686;23.352;2023-08-08T11:25:43;95389.72;;;24.29;37.04
41234;BME280;26968;42.686;23.352;2023-08-08T11:28:09;95349.81;;;24.26;37.01
41234;BME280;26968;42.686;23.352;2023-08-08T11:30:38;95373.03;;;24.27;36.60
41234;BME280;26968;42.686;23.352;2023-08-08T11:33:04;95375.69;;;24.42;37.20
41234;BME280;26968;42.686;23.352;2023-08-08T11:35:30;95406.94;;;24.75;36.28
41234;BME280;26968;42.686;23.352;2023-08-08T11:37:56;95377.44;;;24.15;36.94
41234;BME280;26968;42.686;23.352;2023-08-08T11:40:24;95400.00;;;24.58;36.75
41234;BME280;26968;42.686;23.352;2023-08-08T11:42:51;95399.16;;;24.54;36.03
41234;BME280;26968;42.686;23.352;2023-08-08T11:45:17;95400.31;;;24.53;36.85
41234;BME280;26968;42.686;23.352;2023-08-08T11:47:43;95417.06;;;24.58;36.93
41234;BME280;26968;42.686;23.352;2023-08-08T11:50:10;95384.88;;;24.76;36.48
41234;BME280;26968;42.686;23.352;2023-08-08T11:52:44;95356.97;;;24.95;35.93
41234;BME280;26968;42.686;23.352;2023-08-08T11:55:11;95388.88;;;25.47;35.36
41234;BME280;26968;42.686;23.352;2023-08-08T11:57:37;95387.09;;;25.81;34.62
41234;BME280;26968;42.686;23.352;2023-08-08T12:00:06;95379.63;;;25.52;34.70
41234;BME280;26968;42.686;23.352;2023-08-08T12:02:32;95262.16;;;24.60;35.11
41234;BME280;26968;42.686;23.352;2023-08-08T12:05:04;95385.50;;;25.54;34.95
41234;BME280;26968;42.686;23.352;2023-08-08T12:07:32;95393.78;;;25.38;34.75
41234;BME280;26968;42.686;23.352;2023-08-08T12:09:58;95310.94;;;24.79;35.41
41234;BME280;26968;42.686;23.352;2023-08-08T12:12:26;95332.69;;;25.25;34.67
41234;BME280;26968;42.686;23.352;2023-08-08T12:14:53;95377.53;;;25.64;34.75
41234;BME280;26968;42.686;23.352;2023-08-08T12:17:21;95343.97;;;25.76;34.21
41234;BME280;26968;42.686;23.352;2023-08-08T12:19:47;95360.41;;;25.60;34.51
41234;BME280;26968;42.686;23.352;2023-08-08T12:22:14;95324.53;;;25.25;34.60
41234;BME280;26968;42.686;23.352;2023-08-08T12:24:39;95307.09;;;25.26;34.12
41234;BME280;26968;42.686;23.352;2023-08-08T12:27:05;95362.59;;;26.04;34.06
41234;BME280;26968;42.686;23.352;2023-08-08T12:29:30;95346.38;;;26.11;33.78
41234;BME280;26968;42.686;23.352;2023-08-08T12:31:56;95340.78;;;26.27;33.65
41234;BME280;26968;42.686;23.352;2023-08-08T12:34:21;95318.75;;;26.05;33.62
41234;BME280;26968;42.686;23.352;2023-08-08T12:36:47;95333.59;;;26.41;33.38
41234;BME280;26968;42.686;23.352;2023-08-08T12:39:12;95337.94;;;26.49;32.45
41234;BME280;26968;42.686;23.352;2023-08-08T12:41:39;95352.44;;;26.91;32.06
41234;BME280;26968;42.686;23.352;2023-08-08T12:44:04;95346.09;;;26.83;32.51
41234;BME280;26968;42.686;23.352;2023-08-08T12:46:31;95245.66;;;25.67;32.35
41234;BME280;26968;42.686;23.352;2023-08-08T12:48:57;95311.75;;;26.04;32.94